createdAt,value
2019-05-20T00:00:21.511Z,9.33
2019-05-20T00:02:49.793Z,12.30
2019-05-20T00:05:17.628Z,11.90
2019-05-20T00:07:45.293Z,10.13
2019-05-20T00:10:13.889Z,15.77
2019-05-20T00:12:41.635Z,10.07
2019-05-20T00:15:09.421Z,10.77
2019-05-20T00:17:37.630Z,12.53
2019-05-20T00:20:06.073Z,12.40
2019-05-20T00:22:33.764Z,14.10
2019-05-20T00:25:01.762Z,14.10
2019-05-20T00:27:29.419Z,16.00
2019-05-20T00:29:57.399Z,17.17
2019-05-20T00:32:40.279Z,12.90
2019-05-20T00:34:55.548Z,14.40
2019-05-20T00:37:23.875Z,15.60
2019-05-20T00:39:51.909Z,17.53
2019-05-20T00:42:19.858Z,18.63
2019-05-20T00:44:48.104Z,16.30
2019-05-20T00:47:16.036Z,16.97
2019-05-20T00:49:43.773Z,15.97
2019-05-20T00:52:11.725Z,15.10
2019-05-20T00:54:39.898Z,15.73
2019-05-20T00:57:08.341Z,17.87
2019-05-20T00:59:36.280Z,14.53
2019-05-20T01:02:04.804Z,19.70
2019-05-20T01:04:32.930Z,21.47
2019-05-20T01:07:01.259Z,18.53
2019-05-20T01:09:29.772Z,16.97
2019-05-20T01:11:57.749Z,15.13
2019-05-20T01:14:25.463Z,16.40
2019-05-20T01:16:53.472Z,17.20
2019-05-20T01:19:21.513Z,16.40
2019-05-20T01:21:49.256Z,16.43
2019-05-20T01:24:17.203Z,19.07
2019-05-20T01:26:45.108Z,19.97
2019-05-20T01:29:13.041Z,19.37
2019-05-20T01:31:40.947Z,18.80
2019-05-20T01:34:08.857Z,21.20
2019-05-20T01:36:36.591Z,17.53
2019-05-20T01:39:05.090Z,24.17
2019-05-20T01:41:33.337Z,16.53
2019-05-20T01:44:00.988Z,19.20
2019-05-20T01:46:28.899Z,17.33
2019-05-20T01:48:57.123Z,20.27
2019-05-20T01:51:25.053Z,29.57
2019-05-20T01:53:52.728Z,32.83
2019-05-20T01:56:20.498Z,35.80
2019-05-20T01:58:48.332Z,37.57
2019-05-20T02:01:16.271Z,41.83
2019-05-20T02:03:44.180Z,47.43
2019-05-20T02:06:12.362Z,46.80
2019-05-20T02:08:40.280Z,50.90
2019-05-20T02:11:08.241Z,54.43
2019-05-20T02:14:01.888Z,57.60
2019-05-20T02:16:29.832Z,59.17
2019-05-20T02:18:58.009Z,59.53
2019-05-20T02:21:26.236Z,61.70
2019-05-20T02:23:53.896Z,68.60
2019-05-20T02:26:21.614Z,64.10
2019-05-20T02:28:49.821Z,66.53
2019-05-20T02:31:17.823Z,60.00
2019-05-20T02:33:51.874Z,68.77
2019-05-20T02:36:15.120Z,70.40
2019-05-20T02:38:43.314Z,73.93
2019-05-20T02:41:11.397Z,67.47
2019-05-20T02:43:39.433Z,74.03
2019-05-20T02:46:07.431Z,71.60
2019-05-20T02:51:07.917Z,70.70
2019-05-20T02:53:36.086Z,71.13
2019-05-20T02:56:03.854Z,81.10
2019-05-20T02:58:31.594Z,70.97
2019-05-20T03:00:59.341Z,76.70
2019-05-20T03:03:27.249Z,75.80
2019-05-20T03:05:55.216Z,76.37
2019-05-20T03:08:23.167Z,86.30
2019-05-20T03:10:51.372Z,84.77
2019-05-20T03:13:19.298Z,88.83
2019-05-20T03:15:47.265Z,90.27
2019-05-20T03:18:15.545Z,88.93
2019-05-20T03:20:43.269Z,96.07
2019-05-20T03:23:11.166Z,91.20
2019-05-20T03:25:39.091Z,91.90
2019-05-20T03:28:07.053Z,94.87
2019-05-20T03:30:34.709Z,99.17
2019-05-20T03:33:02.699Z,101.53
2019-05-20T03:35:30.448Z,97.03
2019-05-20T03:37:58.408Z,106.10
2019-05-20T03:40:26.668Z,102.80
2019-05-20T03:42:54.896Z,97.00
2019-05-20T03:45:22.542Z,102.53
2019-05-20T03:47:50.442Z,97.77
2019-05-20T03:50:18.418Z,101.13
2019-05-20T03:52:46.612Z,101.47
2019-05-20T03:55:14.537Z,94.03
2019-05-20T03:57:42.577Z,99.33
2019-05-20T04:00:10.577Z,105.77
2019-05-20T04:02:38.310Z,96.30
2019-05-20T04:05:06.357Z,101.13
2019-05-20T04:07:34.635Z,95.67
2019-05-20T04:10:03.109Z,94.23
2019-05-20T04:12:30.846Z,102.73
2019-05-20T04:14:59.081Z,103.97
2019-05-20T04:17:26.753Z,88.33
2019-05-20T04:19:54.531Z,98.50
2019-05-20T04:22:22.768Z,99.73
2019-05-20T04:24:50.532Z,93.17
2019-05-20T04:27:18.522Z,93.13
2019-05-20T04:29:46.513Z,97.77
2019-05-20T04:32:14.413Z,98.30
2019-05-20T04:34:42.137Z,95.80
2019-05-20T04:37:10.310Z,101.13
2019-05-20T04:39:38.658Z,98.70
2019-05-20T04:42:07.009Z,100.07
2019-05-20T04:44:35.497Z,91.53
2019-05-20T04:47:03.252Z,89.33
2019-05-20T04:49:33.757Z,89.43
2019-05-20T04:52:01.774Z,92.40
2019-05-20T04:54:29.869Z,88.07
2019-05-20T04:56:58.699Z,90.23
2019-05-20T04:59:26.700Z,93.67
2019-05-20T05:01:54.676Z,94.63
2019-05-20T05:04:22.868Z,85.37
2019-05-20T05:06:50.863Z,92.13
2019-05-20T05:09:19.313Z,93.57
2019-05-20T05:11:47.478Z,92.27
2019-05-20T05:14:15.782Z,93.03
2019-05-20T05:16:44.234Z,95.43
2019-05-20T05:19:12.228Z,86.13
2019-05-20T05:21:40.410Z,89.73
2019-05-20T05:24:08.458Z,92.20
2019-05-20T05:26:36.368Z,90.47
2019-05-20T05:29:04.350Z,95.47
2019-05-20T05:31:32.016Z,80.67
2019-05-20T05:33:59.946Z,82.10
2019-05-20T05:36:27.661Z,80.07
2019-05-20T05:38:55.591Z,85.07
2019-05-20T05:41:23.521Z,83.70
2019-05-20T05:43:51.221Z,78.30
2019-05-20T05:46:19.206Z,73.47
2019-05-20T05:48:46.893Z,75.97
2019-05-20T05:51:15.073Z,73.40
2019-05-20T05:53:43.010Z,75.10
2019-05-20T05:56:11.210Z,73.93
2019-05-20T05:58:39.124Z,80.40
2019-05-20T06:01:06.791Z,78.83
2019-05-20T06:03:34.785Z,75.00
2019-05-20T06:06:12.099Z,76.43
2019-05-20T06:08:32.921Z,75.80
2019-05-20T06:11:00.580Z,69.97
2019-05-20T06:13:28.572Z,71.87
2019-05-20T06:15:56.354Z,70.30
2019-05-20T06:18:24.405Z,71.60
2019-05-20T06:20:52.629Z,71.20
2019-05-20T06:23:20.285Z,69.07
2019-05-20T06:25:48.203Z,74.50
2019-05-20T06:28:16.096Z,71.07
2019-05-20T06:30:44.792Z,68.43
2019-05-20T06:33:12.497Z,72.20
2019-05-20T06:35:40.308Z,71.27
2019-05-20T06:38:12.250Z,69.67
2019-05-20T06:40:40.166Z,69.67
2019-05-20T06:43:08.172Z,76.63
2019-05-20T06:45:36.109Z,70.23
2019-05-20T06:48:04.205Z,71.87
2019-05-20T06:50:32.103Z,73.47
2019-05-20T06:53:00.217Z,82.73
2019-05-20T06:55:27.967Z,73.07
2019-05-20T06:57:56.228Z,80.63
2019-05-20T07:00:33.940Z,74.63
2019-05-20T07:03:01.878Z,76.53
2019-05-20T07:05:29.793Z,75.40
2019-05-20T07:08:01.052Z,76.57
2019-05-20T07:10:27.740Z,66.40
2019-05-20T07:12:55.658Z,68.30
2019-05-20T07:15:23.828Z,68.63
2019-05-20T07:17:52.040Z,67.37
2019-05-20T07:20:20.082Z,63.00
2019-05-20T07:22:56.229Z,65.13
2019-05-20T07:25:23.901Z,62.00
2019-05-20T07:27:52.771Z,58.10
2019-05-20T07:30:21.075Z,57.80
2019-05-20T07:32:49.118Z,55.80
2019-05-20T07:35:29.399Z,61.10
2019-05-20T07:37:47.115Z,63.17
2019-05-20T07:40:17.797Z,59.10
2019-05-20T07:42:46.210Z,67.20
2019-05-20T07:45:14.390Z,62.83
2019-05-20T07:47:44.678Z,56.13
2019-05-20T07:50:12.735Z,59.37
2019-05-20T07:52:40.901Z,61.50
2019-05-20T07:55:09.145Z,63.77
2019-05-20T07:57:38.562Z,63.83
2019-05-20T08:00:06.316Z,71.07
2019-05-20T08:02:34.069Z,76.00
2019-05-20T08:05:03.038Z,63.50
2019-05-20T08:07:50.687Z,64.73
2019-05-20T08:10:01.457Z,68.20
2019-05-20T08:12:29.170Z,66.83
2019-05-20T08:14:57.595Z,61.20
2019-05-20T08:17:25.286Z,62.00
2019-05-20T08:19:53.223Z,71.70
2019-05-20T08:22:20.894Z,79.00
2019-05-20T08:24:48.804Z,73.37
2019-05-20T08:27:17.077Z,73.10
2019-05-20T08:29:45.102Z,77.07
2019-05-20T08:32:13.402Z,75.07
2019-05-20T08:34:41.122Z,73.40
2019-05-20T08:37:08.832Z,74.27
2019-05-20T08:39:36.535Z,85.33
2019-05-20T08:42:04.922Z,77.80
2019-05-20T08:44:34.024Z,76.80
2019-05-20T08:47:02.176Z,82.03
2019-05-20T08:49:30.478Z,80.07
2019-05-20T08:51:58.733Z,75.77
2019-05-20T08:54:27.155Z,73.67
2019-05-20T08:56:55.454Z,73.00
2019-05-20T08:59:23.906Z,69.47
2019-05-20T09:01:52.253Z,66.37
2019-05-20T09:04:20.328Z,65.03
2019-05-20T09:06:48.003Z,56.97
2019-05-20T09:09:15.989Z,52.27
2019-05-20T09:11:47.307Z,50.27
2019-05-20T09:14:14.085Z,46.40
2019-05-20T09:16:42.569Z,45.73
2019-05-20T09:19:10.945Z,45.10
2019-05-20T09:21:38.871Z,49.43
2019-05-20T09:24:06.875Z,49.30
2019-05-20T09:26:35.174Z,54.67
2019-05-20T09:29:02.972Z,48.60
2019-05-20T09:31:30.944Z,54.07
2019-05-20T09:33:58.925Z,51.13
2019-05-20T09:36:26.964Z,50.37
2019-05-20T09:38:55.382Z,42.03
2019-05-20T09:41:23.596Z,40.67
2019-05-20T09:43:51.261Z,42.33
2019-05-20T09:46:19.421Z,45.27
2019-05-20T09:48:47.536Z,44.97
2019-05-20T09:51:16.189Z,43.50
2019-05-20T09:53:44.266Z,46.10
2019-05-20T09:56:12.588Z,43.70
2019-05-20T09:58:41.224Z,45.10
2019-05-20T10:01:09.565Z,42.20
2019-05-20T10:03:38.068Z,43.33
2019-05-20T10:06:06.984Z,38.93
2019-05-20T10:08:40.891Z,42.70
2019-05-20T10:11:04.305Z,40.40
2019-05-20T10:13:32.501Z,41.23
2019-05-20T10:16:00.737Z,40.80
2019-05-20T10:18:37.269Z,48.63
2019-05-20T10:20:59.601Z,43.40
2019-05-20T10:23:27.632Z,42.00
2019-05-20T10:25:55.631Z,43.57
2019-05-20T10:28:23.978Z,46.20
2019-05-20T10:30:52.415Z,42.80
2019-05-20T10:33:20.577Z,44.93
2019-05-20T10:35:49.057Z,43.53
2019-05-20T10:38:17.455Z,46.73
2019-05-20T10:40:45.521Z,43.37
2019-05-20T10:43:13.252Z,39.80
2019-05-20T10:45:41.840Z,44.23
2019-05-20T10:48:09.545Z,50.47
2019-05-20T10:50:37.550Z,45.60
2019-05-20T10:53:05.620Z,44.90
2019-05-20T10:55:33.628Z,44.97
2019-05-20T10:58:01.826Z,43.53
2019-05-20T11:00:29.914Z,46.80
2019-05-20T11:02:58.369Z,44.57
2019-05-20T11:05:26.408Z,49.63
2019-05-20T11:07:54.406Z,47.20
2019-05-20T11:10:22.451Z,50.57
2019-05-20T11:12:50.780Z,48.63
2019-05-20T11:15:18.887Z,54.93
2019-05-20T11:17:46.911Z,63.37
2019-05-20T11:20:15.380Z,48.80
2019-05-20T11:22:43.664Z,44.87
2019-05-20T11:25:12.034Z,49.13
2019-05-20T11:27:40.118Z,47.57
2019-05-20T11:30:09.271Z,51.53
2019-05-20T11:32:37.329Z,49.50
2019-05-20T11:35:05.713Z,53.07
2019-05-20T11:37:34.036Z,53.10
2019-05-20T11:40:01.899Z,53.10
2019-05-20T11:42:30.578Z,57.37
2019-05-20T11:44:58.768Z,53.67
2019-05-20T11:47:26.821Z,51.50
2019-05-20T11:49:54.911Z,53.33
2019-05-20T11:52:23.113Z,53.67
2019-05-20T11:54:50.801Z,52.67
2019-05-20T11:57:19.075Z,48.83
2019-05-20T11:59:47.447Z,52.10
2019-05-20T12:02:15.479Z,48.73
2019-05-20T12:04:43.451Z,52.83
2019-05-20T12:07:11.186Z,53.57
2019-05-20T12:09:48.907Z,49.50
2019-05-20T12:12:08.776Z,57.30
2019-05-20T12:14:37.046Z,52.57
2019-05-20T12:17:05.409Z,50.83
2019-05-20T12:19:33.697Z,52.77
2019-05-20T12:22:01.922Z,53.80
2019-05-20T12:24:30.121Z,55.13
2019-05-20T12:26:58.117Z,52.77
2019-05-20T12:29:26.152Z,54.17
2019-05-20T12:31:53.880Z,52.90
2019-05-20T12:34:23.755Z,56.50
2019-05-20T12:36:52.014Z,49.73
2019-05-20T12:39:20.243Z,58.53
2019-05-20T12:41:48.624Z,58.33
2019-05-20T12:44:16.679Z,53.30
2019-05-20T12:46:44.610Z,62.07
2019-05-20T12:49:12.420Z,61.30
2019-05-20T12:51:40.525Z,58.80
2019-05-20T12:54:08.512Z,56.03
2019-05-20T12:56:36.841Z,59.83
2019-05-20T12:59:04.922Z,61.77
2019-05-20T13:01:33.142Z,56.80
2019-05-20T13:04:00.866Z,63.23
2019-05-20T13:06:28.866Z,53.87
2019-05-20T13:08:56.514Z,54.63
2019-05-20T13:11:24.798Z,58.23
2019-05-20T13:13:53.036Z,57.60
2019-05-20T13:16:21.082Z,53.70
2019-05-20T13:18:56.028Z,53.63
2019-05-20T13:21:19.830Z,54.37
2019-05-20T13:23:49.179Z,55.63
2019-05-20T13:26:17.566Z,55.67
2019-05-20T13:28:45.264Z,58.73
2019-05-20T13:31:13.230Z,52.90
2019-05-20T13:33:40.927Z,55.07
2019-05-20T13:36:09.274Z,48.00
2019-05-20T13:38:36.942Z,54.60
2019-05-20T13:41:04.650Z,54.43
2019-05-20T13:43:32.340Z,51.00
2019-05-20T13:46:00.256Z,53.87
2019-05-20T13:48:28.291Z,52.27
2019-05-20T13:50:56.212Z,56.43
2019-05-20T13:53:24.277Z,58.73
2019-05-20T13:55:52.107Z,53.63
2019-05-20T13:58:19.958Z,54.40
2019-05-20T14:00:47.970Z,52.50
2019-05-20T14:03:16.066Z,52.40
2019-05-20T14:05:43.769Z,55.33
2019-05-20T14:08:11.461Z,56.93
2019-05-20T14:10:39.503Z,56.27
2019-05-20T14:13:08.197Z,50.13
2019-05-20T14:15:36.320Z,51.90
2019-05-20T14:18:04.838Z,51.17
2019-05-20T14:20:33.011Z,50.00
2019-05-20T14:23:01.343Z,55.33
2019-05-20T14:25:29.614Z,53.27
2019-05-20T14:27:57.573Z,53.23
2019-05-20T14:30:25.809Z,49.73
2019-05-20T14:32:53.610Z,51.03
2019-05-20T14:35:21.638Z,52.40
2019-05-20T14:37:49.325Z,54.53
2019-05-20T14:40:17.603Z,52.00
2019-05-20T14:42:45.672Z,51.20
2019-05-20T14:45:14.164Z,50.77
2019-05-20T14:47:42.941Z,50.07
2019-05-20T14:50:10.960Z,55.43
2019-05-20T14:52:39.173Z,49.23
2019-05-20T14:55:07.357Z,44.70
2019-05-20T14:57:35.420Z,53.60
2019-05-20T15:00:03.403Z,52.07
2019-05-20T15:02:31.542Z,49.30
2019-05-20T15:04:59.440Z,49.17
2019-05-20T15:07:30.733Z,51.97
2019-05-20T15:09:57.368Z,54.73
2019-05-20T15:12:25.388Z,51.77
2019-05-20T15:14:53.335Z,53.17
2019-05-20T15:17:21.422Z,54.80
2019-05-20T15:19:49.804Z,55.50
2019-05-20T15:22:18.295Z,61.37
2019-05-20T15:24:46.773Z,56.00
2019-05-20T15:27:15.158Z,52.57
2019-05-20T15:29:43.152Z,57.20
2019-05-20T15:32:11.710Z,53.33
2019-05-20T15:34:39.351Z,53.37
2019-05-20T15:37:07.058Z,55.67
2019-05-20T15:39:34.734Z,55.90
2019-05-20T15:42:03.491Z,52.27
2019-05-20T15:44:31.924Z,49.67
2019-05-20T15:46:59.886Z,57.37
2019-05-20T15:49:28.200Z,51.77
2019-05-20T15:51:56.245Z,52.70
2019-05-20T15:54:24.678Z,59.93
2019-05-20T15:56:52.702Z,52.50
2019-05-20T15:59:21.015Z,53.97
2019-05-20T16:01:49.093Z,52.03
2019-05-20T16:04:16.765Z,49.30
2019-05-20T16:06:45.114Z,52.03
2019-05-20T16:09:16.975Z,49.87
2019-05-20T16:11:43.200Z,48.53
2019-05-20T16:14:11.381Z,53.67
2019-05-20T16:16:39.024Z,51.47
2019-05-20T16:19:06.751Z,48.63
2019-05-20T16:21:34.498Z,54.73
2019-05-20T16:24:02.885Z,53.37
2019-05-20T16:26:31.514Z,46.33
2019-05-20T16:28:59.498Z,48.27
2019-05-20T16:31:27.174Z,48.67
2019-05-20T16:33:59.362Z,52.63
2019-05-20T16:36:26.239Z,46.20
2019-05-20T16:38:54.566Z,44.80
2019-05-20T16:41:22.389Z,45.40
2019-05-20T16:43:50.531Z,43.97
2019-05-20T16:46:18.600Z,46.60
2019-05-20T16:48:46.260Z,44.03
2019-05-20T16:51:15.038Z,48.00
2019-05-20T16:53:43.020Z,46.27
2019-05-20T16:56:11.100Z,46.57
2019-05-20T16:58:39.763Z,47.80
2019-05-20T17:01:07.950Z,45.33
2019-05-20T17:03:38.935Z,43.40
2019-05-20T17:06:09.522Z,52.10
2019-05-20T17:08:40.218Z,53.33
2019-05-20T17:11:13.583Z,41.77
2019-05-20T17:13:41.636Z,43.27
2019-05-20T17:16:09.780Z,41.40
2019-05-20T17:18:37.800Z,39.60
2019-05-20T17:21:13.649Z,38.63
2019-05-20T17:23:41.525Z,39.13
2019-05-20T17:26:17.269Z,37.23
2019-05-20T17:28:45.345Z,36.47
2019-05-20T17:31:15.503Z,35.33
2019-05-20T17:33:45.645Z,38.17
2019-05-20T17:36:13.971Z,36.53
2019-05-20T17:38:42.104Z,35.83
2019-05-20T17:41:10.217Z,32.77
2019-05-20T17:43:37.913Z,33.97
2019-05-20T17:46:05.885Z,34.53
2019-05-20T17:48:33.974Z,32.73
2019-05-20T17:51:01.993Z,31.50
2019-05-20T17:53:29.933Z,31.83
2019-05-20T17:55:57.989Z,32.40
2019-05-20T17:58:26.061Z,34.10
2019-05-20T18:00:54.134Z,33.03
2019-05-20T18:03:22.384Z,37.40
2019-05-20T18:05:51.273Z,33.83
2019-05-20T18:08:19.746Z,34.40
2019-05-20T18:10:47.989Z,32.37
2019-05-20T18:13:16.002Z,33.10
2019-05-20T18:15:46.368Z,32.20
2019-05-20T18:18:14.230Z,34.30
2019-05-20T18:20:42.632Z,29.33
2019-05-20T18:23:10.746Z,33.50
2019-05-20T18:25:38.657Z,33.37
2019-05-20T18:28:06.417Z,30.90
2019-05-20T18:30:34.725Z,32.13
2019-05-20T18:33:02.405Z,30.23
2019-05-20T18:35:30.401Z,31.40
2019-05-20T18:37:58.271Z,36.10
2019-05-20T18:40:26.753Z,34.43
2019-05-20T18:42:54.689Z,32.47
2019-05-20T18:45:22.580Z,35.87
2019-05-20T18:47:51.240Z,33.30
2019-05-20T18:50:19.378Z,33.43
2019-05-20T18:52:47.635Z,32.63
2019-05-20T18:55:15.636Z,34.27
2019-05-20T18:57:43.602Z,33.33
2019-05-20T19:00:12.441Z,36.83
2019-05-20T19:02:40.098Z,29.37
2019-05-20T19:05:08.151Z,28.50
2019-05-20T19:07:35.902Z,31.93
2019-05-20T19:10:03.836Z,32.60
2019-05-20T19:12:32.396Z,31.97
2019-05-20T19:15:00.220Z,30.60
2019-05-20T19:17:28.039Z,31.67
2019-05-20T19:19:55.799Z,31.87
2019-05-20T19:22:24.181Z,32.20
2019-05-20T19:24:52.544Z,33.97
2019-05-20T19:27:20.266Z,34.53
2019-05-20T19:29:48.889Z,31.07
2019-05-20T19:32:18.509Z,29.00
2019-05-20T19:34:46.779Z,30.30
2019-05-20T19:37:14.782Z,30.40
2019-05-20T19:39:42.497Z,32.30
2019-05-20T19:42:10.796Z,33.00
2019-05-20T19:44:38.741Z,32.50
2019-05-20T19:47:07.147Z,33.50
2019-05-20T19:49:34.989Z,30.53
2019-05-20T19:52:02.780Z,36.10
2019-05-20T19:54:30.789Z,36.03
2019-05-20T19:56:58.483Z,31.30
2019-05-20T19:59:26.891Z,35.40
2019-05-20T20:01:54.952Z,30.20
2019-05-20T20:04:23.236Z,35.00
2019-05-20T20:06:51.339Z,34.30
2019-05-20T20:09:19.367Z,32.90
2019-05-20T20:11:47.149Z,35.07
2019-05-20T20:14:15.188Z,33.37
2019-05-20T20:16:43.229Z,33.00
2019-05-20T20:19:10.920Z,31.93
2019-05-20T20:21:39.765Z,33.10
2019-05-20T20:24:09.393Z,33.07
2019-05-20T20:26:38.015Z,36.33
2019-05-20T20:29:06.290Z,31.40
2019-05-20T20:31:34.855Z,35.20
2019-05-20T20:34:02.861Z,34.10
2019-05-20T20:36:31.099Z,34.23
2019-05-20T20:38:59.610Z,36.30
2019-05-20T20:41:27.373Z,31.57
2019-05-20T20:43:55.347Z,35.37
2019-05-20T20:46:23.412Z,36.73
2019-05-20T20:48:51.056Z,36.77
2019-05-20T20:51:19.208Z,37.03
2019-05-20T20:53:47.200Z,34.30
2019-05-20T20:56:24.582Z,34.90
2019-05-20T20:58:45.442Z,36.60
2019-05-20T21:01:13.677Z,39.53
2019-05-20T21:03:41.707Z,38.63
2019-05-20T21:06:09.763Z,38.17
2019-05-20T21:08:37.829Z,40.90
2019-05-20T21:11:06.182Z,42.07
2019-05-20T21:13:34.142Z,42.93
2019-05-20T21:16:01.831Z,42.00
2019-05-20T21:18:29.794Z,46.30
2019-05-20T21:20:57.694Z,45.40
2019-05-20T21:23:25.658Z,47.63
2019-05-20T21:25:53.707Z,42.20
2019-05-20T21:28:22.043Z,45.30
2019-05-20T21:30:50.054Z,51.33
2019-05-20T21:33:18.076Z,45.23
2019-05-20T21:35:46.294Z,44.47
2019-05-20T21:38:14.574Z,49.90
2019-05-20T21:40:42.231Z,48.67
2019-05-20T21:43:10.286Z,49.57
2019-05-20T21:45:38.707Z,41.73
2019-05-20T21:48:06.383Z,49.43
2019-05-20T21:50:34.709Z,42.60
2019-05-20T21:53:02.726Z,46.83
2019-05-20T21:55:30.905Z,45.50
2019-05-20T21:57:58.649Z,41.33
2019-05-20T22:00:32.875Z,43.63
2019-05-20T22:03:01.445Z,44.37
2019-05-20T22:05:29.559Z,44.80
2019-05-20T22:07:57.548Z,44.33
2019-05-20T22:10:25.858Z,44.90
2019-05-20T22:12:54.073Z,47.70
2019-05-20T22:15:22.395Z,47.53
2019-05-20T22:17:50.354Z,47.97
2019-05-20T22:20:18.258Z,48.13
2019-05-20T22:22:51.042Z,43.17
2019-05-20T22:25:19.108Z,50.20
2019-05-20T22:27:47.282Z,45.60
2019-05-20T22:30:15.361Z,45.03
2019-05-20T22:32:43.972Z,45.13
2019-05-20T22:35:12.196Z,48.27
2019-05-20T22:37:40.259Z,52.57
2019-05-20T22:40:08.475Z,42.37
2019-05-20T22:42:36.177Z,42.67
2019-05-20T22:45:04.309Z,40.40
2019-05-20T22:47:31.969Z,41.50
2019-05-20T22:49:59.626Z,40.37
2019-05-20T22:52:27.556Z,42.77
2019-05-20T22:54:55.247Z,39.87
2019-05-20T22:57:23.180Z,39.67
2019-05-20T22:59:51.081Z,42.53
2019-05-20T23:02:19.052Z,43.30
2019-05-20T23:04:46.764Z,34.63
2019-05-20T23:07:14.865Z,39.30
2019-05-20T23:09:42.857Z,38.60
2019-05-20T23:12:11.463Z,42.07
2019-05-20T23:14:39.425Z,40.70
2019-05-20T23:17:07.501Z,41.70
2019-05-20T23:19:43.155Z,41.33
2019-05-20T23:22:10.841Z,43.13
2019-05-20T23:24:39.381Z,46.17
2019-05-20T23:27:07.544Z,47.13
2019-05-20T23:29:35.600Z,49.50
2019-05-20T23:32:03.405Z,52.73
2019-05-20T23:34:31.245Z,53.10
2019-05-20T23:36:59.587Z,57.57
2019-05-20T23:39:27.377Z,59.87
2019-05-20T23:41:56.048Z,58.27
2019-05-20T23:44:23.781Z,58.03
2019-05-20T23:46:52.268Z,62.50
2019-05-20T23:49:20.204Z,66.63
2019-05-20T23:51:48.464Z,69.97
2019-05-20T23:54:16.725Z,62.03
2019-05-20T23:56:44.680Z,64.07
2019-05-20T23:59:12.615Z,59.33
